Time;durP1;ratioP1;P1;durP2;ratioP2;P2;SDS_P1;SDS_P2;PMS_P1;PMS_P2;Temp;Humidity;BMP_temperature;BMP_pressure;BME280_temperature;BME280_humidity;BME280_pressure;Samples;Min_cycle;Max_cycle;Signal;HPM_P1;HPM_P2
2023/01/22 00:02:07;;;;;;;27.20;13.07;;;-0.90;99.90;;;;;;5016849;28;20692;-67
2023/01/22 00:04:33;;;;;;;27.98;13.23;;;-0.90;99.90;;;;;;5021362;28;20106;-67
2023/01/22 00:06:59;;;;;;;27.58;13.35;;;-1.00;99.90;;;;;;5010155;28;20041;-67
2023/01/22 00:09:24;;;;;;;27.38;12.77;;;-1.10;99.90;;;;;;5015829;28;20470;-67
2023/01/22 00:11:51;;;;;;;28.98;13.55;;;-1.20;99.90;;;;;;5017417;28;20523;-67
2023/01/22 00:14:16;;;;;;;24.63;12.68;;;-1.30;99.90;;;;;;5021723;28;20077;-67
2023/01/22 00:16:42;;;;;;;24.95;11.85;;;-1.40;99.90;;;;;;5031040;28;20085;-67
2023/01/22 00:19:09;;;;;;;26.98;12.82;;;-1.40;99.90;;;;;;5018221;28;20034;-66
2023/01/22 00:21:34;;;;;;;23.20;10.90;;;-1.40;99.90;;;;;;5018098;28;20062;-67
2023/01/22 00:24:00;;;;;;;25.45;10.95;;;-1.40;99.90;;;;;;5028713;28;20045;-67
2023/01/22 00:26:26;;;;;;;23.67;10.68;;;-1.30;99.90;;;;;;5023503;28;20119;-67
2023/01/22 00:28:52;;;;;;;20.92;10.45;;;-1.20;99.90;;;;;;5028802;28;20075;-66
2023/01/22 00:31:18;;;;;;;19.55;9.18;;;-1.20;99.90;;;;;;5021486;28;20068;-67
2023/01/22 00:33:45;;;;;;;20.95;10.27;;;-1.20;99.90;;;;;;5031240;28;20037;-67
2023/01/22 00:36:16;;;;;;;19.80;9.93;;;-1.10;99.90;;;;;;5017025;28;20038;-67
2023/01/22 00:38:43;;;;;;;25.80;12.15;;;-1.10;99.90;;;;;;5020941;28;20037;-67
2023/01/22 00:41:08;;;;;;;24.42;11.27;;;-1.10;99.90;;;;;;5027808;28;20042;-67
2023/01/22 00:43:37;;;;;;;25.63;12.20;;;-1.10;99.90;;;;;;5019455;28;20042;-67
2023/01/22 00:46:04;;;;;;;25.35;12.07;;;-1.20;99.90;;;;;;5027848;28;20042;-67
2023/01/22 00:48:30;;;;;;;24.73;11.80;;;-1.20;99.90;;;;;;5011439;28;20121;-67
2023/01/22 00:50:56;;;;;;;28.30;12.95;;;-1.30;99.90;;;;;;5024443;28;20136;-67
2023/01/22 00:53:21;;;;;;;28.30;12.60;;;-1.30;99.90;;;;;;5024176;28;20408;-66
2023/01/22 00:55:58;;;;;;;27.45;11.25;;;-1.30;99.90;;;;;;5029144;28;20055;-67
2023/01/22 00:58:24;;;;;;;25.75;11.43;;;-1.40;99.90;;;;;;5026757;28;20037;-67
2023/01/22 01:00:50;;;;;;;22.92;11.77;;;-1.30;99.90;;;;;;5021913;28;20104;-67
2023/01/22 01:03:25;;;;;;;23.80;10.95;;;-1.30;99.90;;;;;;5025751;28;20034;-67
2023/01/22 01:05:55;;;;;;;27.70;12.05;;;-1.20;99.90;;;;;;5034246;28;20041;-66
2023/01/22 01:08:22;;;;;;;24.45;10.85;;;-1.10;99.90;;;;;;5028237;28;20041;-67
2023/01/22 01:10:48;;;;;;;23.55;11.88;;;-1.10;99.90;;;;;;5029883;28;20037;-67
2023/01/22 01:13:13;;;;;;;26.70;11.70;;;-1.10;99.90;;;;;;5026237;28;20044;-66
2023/01/22 01:15:39;;;;;;;28.83;12.35;;;-1.00;99.90;;;;;;5024173;28;20080;-66
2023/01/22 01:18:05;;;;;;;29.52;12.98;;;-1.00;99.90;;;;;;5018017;28;20081;-66
2023/01/22 01:20:30;;;;;;;24.95;11.90;;;-1.00;99.90;;;;;;5024789;28;20049;-66
2023/01/22 01:22:56;;;;;;;15.65;6.85;;;-0.90;99.90;;;;;;5031769;28;20128;-66
2023/01/22 01:25:22;;;;;;;20.80;10.13;;;-0.90;99.90;;;;;;5026095;28;20049;-66
2023/01/22 01:27:47;;;;;;;25.48;12.00;;;-0.90;99.90;;;;;;5029589;28;20075;-67
2023/01/22 01:30:13;;;;;;;26.67;11.45;;;-0.90;99.90;;;;;;5025459;28;20629;-66
2023/01/22 01:32:39;;;;;;;13.70;5.90;;;-1.00;99.90;;;;;;5021937;28;20045;-66
2023/01/22 01:35:05;;;;;;;21.02;9.57;;;-1.00;99.90;;;;;;5028644;28;20415;-66
2023/01/22 01:37:30;;;;;;;24.60;10.63;;;-1.00;99.90;;;;;;5027662;28;20094;-66
2023/01/22 01:39:56;;;;;;;27.60;11.10;;;-1.00;99.90;;;;;;5031684;28;20049;-66
2023/01/22 01:42:30;;;;;;;27.70;11.95;;;-1.10;99.90;;;;;;5019862;28;20554;-67
2023/01/22 01:45:17;;;;;;;18.75;7.63;;;-1.00;99.90;;;;;;5012931;28;20041;-66
2023/01/22 01:47:44;;;;;;;25.30;11.23;;;-1.00;99.90;;;;;;5027813;28;20069;-66
2023/01/22 01:50:10;;;;;;;25.85;11.95;;;-0.90;99.90;;;;;;5012187;28;20080;-66
2023/01/22 01:52:36;;;;;;;26.70;11.57;;;-1.00;99.90;;;;;;5021154;28;20029;-66
2023/01/22 01:55:03;;;;;;;24.00;10.80;;;-1.00;99.90;;;;;;5014608;28;20550;-66
2023/01/22 01:57:32;;;;;;;30.75;12.05;;;-0.90;99.90;;;;;;5012716;28;20046;-66
2023/01/22 02:00:01;;;;;;;21.10;9.20;;;-0.90;99.90;;;;;;5024846;28;20104;-66
2023/01/22 02:02:27;;;;;;;25.45;10.35;;;-0.90;99.90;;;;;;5023168;28;20045;-66
2023/01/22 02:04:52;;;;;;;22.38;11.45;;;-0.90;99.90;;;;;;5033659;28;20029;-66
2023/01/22 02:07:19;;;;;;;15.40;8.05;;;-0.80;99.90;;;;;;5014218;28;20590;-66
2023/01/22 02:09:45;;;;;;;24.13;10.88;;;-0.70;99.90;;;;;;5020556;28;20125;-66
2023/01/22 02:12:11;;;;;;;15.48;6.93;;;-0.70;99.90;;;;;;5031831;28;20046;-66
2023/01/22 02:14:40;;;;;;;15.00;7.45;;;-0.60;99.90;;;;;;5024435;28;20051;-66
2023/01/22 02:17:15;;;;;;;17.73;9.18;;;-0.60;99.90;;;;;;5026618;28;20116;-66
2023/01/22 02:19:42;;;;;;;17.67;8.40;;;-0.50;99.90;;;;;;5020943;28;20048;-66
2023/01/22 02:22:29;;;;;;;15.00;6.95;;;-0.40;99.90;;;;;;5018395;28;20400;-66
2023/01/22 02:24:55;;;;;;;28.02;11.45;;;-0.30;99.90;;;;;;5018923;28;20411;-66
2023/01/22 02:27:21;;;;;;;18.38;8.20;;;-0.20;99.90;;;;;;5020253;28;20034;-66
2023/01/22 02:29:46;;;;;;;21.42;10.20;;;-0.20;99.90;;;;;;5021759;28;20033;-66
2023/01/22 02:32:12;;;;;;;23.25;10.50;;;-0.20;99.90;;;;;;5017046;28;20042;-66
2023/01/22 02:34:38;;;;;;;21.48;9.85;;;-0.20;99.90;;;;;;5020490;28;20051;-66
2023/01/22 02:37:04;;;;;;;24.08;11.57;;;-0.10;99.90;;;;;;5014503;28;20038;-66
2023/01/22 02:39:30;;;;;;;18.25;8.80;;;-0.10;99.90;;;;;;5013053;28;20087;-66
2023/01/22 02:41:56;;;;;;;27.13;11.82;;;0.00;99.90;;;;;;5023381;28;20121;-66
2023/01/22 02:44:21;;;;;;;25.60;12.25;;;0.00;99.90;;;;;;5025057;28;20091;-66
2023/01/22 02:46:47;;;;;;;20.13;9.07;;;0.10;99.90;;;;;;5026723;28;20443;-66
2023/01/22 02:49:13;;;;;;;21.60;7.90;;;0.10;99.90;;;;;;5023496;28;20496;-66
2023/01/22 02:51:38;;;;;;;16.08;7.68;;;0.10;99.90;;;;;;5023778;28;20403;-66
2023/01/22 02:54:04;;;;;;;23.38;11.18;;;0.20;99.90;;;;;;5032526;28;20447;-66
2023/01/22 02:56:32;;;;;;;24.80;11.18;;;0.20;99.90;;;;;;5013953;28;20048;-66
2023/01/22 02:58:59;;;;;;;24.67;11.52;;;0.20;99.90;;;;;;5028453;28;20180;-66
2023/01/22 03:01:25;;;;;;;21.67;10.63;;;0.20;99.90;;;;;;5024812;28;20075;-66
2023/01/22 03:03:55;;;;;;;22.15;10.75;;;0.30;99.90;;;;;;5025852;28;20111;-66
2023/01/22 03:06:23;;;;;;;25.63;10.07;;;0.40;99.90;;;;;;5022533;28;20034;-66
2023/01/22 03:08:51;;;;;;;22.65;10.25;;;0.50;99.90;;;;;;5019859;28;20127;-66
2023/01/22 03:11:17;;;;;;;19.15;9.48;;;0.50;99.90;;;;;;5009644;28;20045;-66
2023/01/22 03:21:55;;;;;;;19.85;9.50;;;0.60;99.90;;;;;;5018426;28;20054;-66
2023/01/22 03:24:21;;;;;;;18.02;8.35;;;0.70;99.90;;;;;;5023649;28;20389;-66
2023/01/22 03:26:46;;;;;;;18.17;9.15;;;0.70;99.90;;;;;;5031882;28;20404;-66
2023/01/22 03:29:12;;;;;;;17.48;8.65;;;0.70;99.90;;;;;;5020670;28;20484;-66
2023/01/22 03:31:37;;;;;;;14.63;8.20;;;0.70;99.90;;;;;;5023416;28;20116;-66
2023/01/22 03:34:03;;;;;;;19.08;9.35;;;0.80;99.90;;;;;;5023003;28;20148;-66
2023/01/22 03:36:29;;;;;;;18.67;8.57;;;0.80;99.90;;;;;;5032103;28;20041;-66
2023/01/22 03:38:54;;;;;;;18.00;9.40;;;0.80;99.90;;;;;;5023825;28;20218;-66
2023/01/22 03:41:20;;;;;;;16.08;8.18;;;0.80;99.90;;;;;;5026278;28;20046;-66
2023/01/22 03:43:46;;;;;;;17.05;9.02;;;0.80;99.90;;;;;;5025766;28;20037;-66
2023/01/22 03:46:18;;;;;;;20.73;9.30;;;0.80;99.90;;;;;;5022056;28;20065;-66
2023/01/22 03:48:44;;;;;;;19.25;9.05;;;0.70;99.90;;;;;;5026660;28;20051;-66
2023/01/22 03:51:15;;;;;;;16.77;8.48;;;0.80;99.90;;;;;;5022298;28;20041;-66
2023/01/22 03:53:42;;;;;;;14.63;8.48;;;0.80;99.90;;;;;;5030153;28;20045;-66
2023/01/22 03:56:12;;;;;;;17.23;8.32;;;0.80;99.90;;;;;;5027417;28;20041;-66
2023/01/22 03:58:38;;;;;;;15.32;8.63;;;0.80;99.90;;;;;;5030671;28;20029;-66
2023/01/22 04:01:10;;;;;;;15.02;8.70;;;0.80;99.90;;;;;;5021213;28;20443;-66
2023/01/22 04:03:36;;;;;;;19.05;8.75;;;0.90;99.90;;;;;;5027900;28;20142;-66
2023/01/22 04:06:02;;;;;;;17.38;8.18;;;0.90;99.90;;;;;;5022714;28;20033;-66
2023/01/22 04:08:30;;;;;;;19.25;8.65;;;0.80;99.90;;;;;;5030070;28;20479;-66
2023/01/22 04:10:56;;;;;;;15.40;8.23;;;0.80;99.90;;;;;;5023090;28;20745;-66
2023/01/22 04:13:23;;;;;;;17.85;8.60;;;0.80;99.90;;;;;;5020466;28;20051;-66
2023/01/22 04:15:49;;;;;;;15.73;7.80;;;0.80;99.90;;;;;;5022930;28;20136;-66
2023/01/22 04:18:15;;;;;;;19.38;8.57;;;0.80;99.90;;;;;;5031353;28;20470;-66
2023/01/22 04:20:40;;;;;;;15.45;8.38;;;0.90;99.90;;;;;;5023318;28;20124;-66
2023/01/22 04:23:07;;;;;;;17.45;8.93;;;0.90;99.90;;;;;;5021910;28;20125;-66
2023/01/22 04:25:33;;;;;;;15.75;8.35;;;0.90;99.90;;;;;;5035514;28;20075;-66
2023/01/22 04:27:59;;;;;;;18.77;9.20;;;0.90;99.90;;;;;;5025362;28;20496;-66
2023/01/22 04:30:25;;;;;;;16.50;9.25;;;0.90;99.90;;;;;;5021522;28;20077;-66
2023/01/22 04:32:50;;;;;;;14.88;8.88;;;0.90;99.90;;;;;;5024863;28;20523;-66
2023/01/22 04:35:16;;;;;;;20.08;10.50;;;0.90;99.90;;;;;;5011237;28;20044;-66
2023/01/22 04:37:42;;;;;;;15.48;9.45;;;0.90;99.90;;;;;;5019833;28;20377;-66
2023/01/22 04:40:08;;;;;;;15.38;9.55;;;0.90;99.90;;;;;;5024826;28;20567;-66
2023/01/22 04:42:34;;;;;;;16.65;9.77;;;0.90;99.90;;;;;;5033298;28;20041;-66
2023/01/22 04:45:00;;;;;;;19.63;9.75;;;0.90;99.90;;;;;;5033054;28;20098;-66
2023/01/22 04:47:26;;;;;;;19.17;9.70;;;0.90;99.90;;;;;;5016880;28;20092;-66
2023/01/22 04:49:51;;;;;;;15.82;9.52;;;0.90;99.90;;;;;;5021104;28;20480;-66
2023/01/22 04:52:17;;;;;;;17.13;9.30;;;0.90;99.90;;;;;;5027003;28;20041;-66
2023/01/22 04:54:43;;;;;;;19.45;10.18;;;1.00;99.90;;;;;;5018912;28;20038;-66
2023/01/22 04:57:09;;;;;;;19.92;9.55;;;0.90;99.90;;;;;;5027559;28;20030;-66
2023/01/22 04:59:35;;;;;;;16.77;9.30;;;0.90;99.90;;;;;;5028947;28;20067;-66
2023/01/22 05:02:01;;;;;;;17.55;9.82;;;0.90;99.90;;;;;;5034343;28;20492;-66
2023/01/22 05:04:27;;;;;;;16.48;9.10;;;0.90;99.90;;;;;;5019049;28;20101;-66
2023/01/22 05:06:53;;;;;;;16.77;10.23;;;0.90;99.90;;;;;;5022461;28;20036;-66
2023/01/22 05:09:18;;;;;;;17.40;9.90;;;0.90;99.90;;;;;;5026859;28;20026;-66
2023/01/22 05:11:44;;;;;;;17.17;9.77;;;0.90;99.90;;;;;;5024630;28;20037;-66
2023/01/22 05:14:09;;;;;;;18.38;10.25;;;0.90;99.90;;;;;;5025668;28;20045;-66
2023/01/22 05:16:35;;;;;;;18.92;10.40;;;0.90;99.90;;;;;;5032029;28;20415;-66
2023/01/22 05:19:01;;;;;;;22.08;11.05;;;0.90;99.90;;;;;;5021046;28;20497;-66
2023/01/22 05:21:26;;;;;;;18.27;10.20;;;0.90;99.90;;;;;;5023334;28;20041;-66
2023/01/22 05:23:52;;;;;;;18.88;10.65;;;0.90;99.90;;;;;;5033552;28;20396;-66
2023/01/22 05:26:17;;;;;;;19.05;11.50;;;1.00;99.90;;;;;;5024346;28;20397;-66
2023/01/22 05:28:43;;;;;;;18.02;10.32;;;0.90;99.90;;;;;;5032844;28;20041;-66
2023/01/22 05:31:09;;;;;;;16.48;10.48;;;0.90;99.90;;;;;;5023627;28;20041;-66
2023/01/22 05:33:36;;;;;;;19.15;11.05;;;0.90;99.90;;;;;;5032269;28;20041;-66
2023/01/22 05:36:02;;;;;;;18.30;10.98;;;0.90;99.90;;;;;;5021332;28;20045;-66
2023/01/22 05:38:29;;;;;;;13.48;8.85;;;0.90;99.90;;;;;;5032790;28;20034;-66
2023/01/22 05:40:54;;;;;;;18.23;10.85;;;0.90;99.90;;;;;;5024148;28;20454;-66
2023/01/22 05:43:21;;;;;;;18.45;11.35;;;0.90;99.90;;;;;;5022889;28;20480;-66
2023/01/22 05:45:46;;;;;;;18.00;10.90;;;0.90;99.90;;;;;;5022580;28;20083;-66
2023/01/22 05:48:12;;;;;;;18.60;11.02;;;0.90;99.90;;;;;;5021202;28;20037;-66
2023/01/22 05:50:39;;;;;;;20.17;11.27;;;0.90;99.90;;;;;;5028562;28;20046;-66
2023/01/22 05:53:05;;;;;;;19.23;11.48;;;0.90;99.90;;;;;;5033203;28;20045;-66
2023/01/22 05:55:32;;;;;;;18.17;11.13;;;0.90;99.90;;;;;;5021919;28;20387;-66
2023/01/22 05:57:58;;;;;;;17.45;10.35;;;0.80;99.90;;;;;;5021599;28;20041;-66
2023/01/22 06:00:23;;;;;;;16.00;9.70;;;0.80;99.90;;;;;;5015539;28;20033;-66
2023/01/22 06:02:57;;;;;;;17.00;9.38;;;0.80;99.90;;;;;;5024037;28;20053;-66
2023/01/22 06:05:22;;;;;;;17.30;10.63;;;0.80;99.90;;;;;;5034210;28;20029;-66
2023/01/22 06:07:48;;;;;;;18.42;10.85;;;0.80;99.90;;;;;;5021681;28;20030;-66
2023/01/22 06:10:14;;;;;;;12.43;8.07;;;0.80;99.90;;;;;;5023329;28;20041;-66
2023/01/22 06:12:40;;;;;;;18.75;10.48;;;0.80;99.90;;;;;;5027387;28;20116;-66
2023/01/22 06:15:06;;;;;;;13.68;8.95;;;0.80;99.90;;;;;;5033401;28;20136;-66
2023/01/22 06:17:32;;;;;;;14.60;8.48;;;0.80;99.90;;;;;;5018223;28;20033;-66
2023/01/22 06:19:57;;;;;;;16.75;9.95;;;0.80;99.90;;;;;;5021160;28;20424;-66
2023/01/22 06:22:23;;;;;;;7.18;4.78;;;0.80;99.90;;;;;;5032227;28;20052;-66
2023/01/22 06:24:49;;;;;;;11.25;5.32;;;0.80;99.90;;;;;;5018180;28;20037;-66
2023/01/22 06:27:15;;;;;;;19.83;9.55;;;0.80;99.90;;;;;;5021939;28;20087;-66
2023/01/22 06:29:41;;;;;;;15.20;9.77;;;0.80;99.90;;;;;;5027421;28;20783;-66
2023/01/22 06:32:07;;;;;;;15.25;8.50;;;0.80;99.90;;;;;;5027198;28;23471;-66
2023/01/22 06:34:32;;;;;;;19.10;9.63;;;0.80;99.90;;;;;;5020839;28;20046;-66
2023/01/22 06:36:58;;;;;;;15.45;8.35;;;0.80;99.90;;;;;;5021481;28;20038;-66
2023/01/22 06:39:24;;;;;;;15.35;9.63;;;0.80;99.90;;;;;;5032561;28;20048;-66
2023/01/22 06:41:49;;;;;;;19.30;9.88;;;0.80;99.90;;;;;;5022612;28;20176;-66
2023/01/22 06:44:16;;;;;;;12.32;6.93;;;0.80;99.90;;;;;;5028519;28;20514;-66
2023/01/22 06:46:42;;;;;;;15.02;8.18;;;0.80;99.90;;;;;;5026875;28;20045;-66
2023/01/22 06:49:09;;;;;;;14.32;8.68;;;0.80;99.90;;;;;;5026373;28;20045;-66
2023/01/22 06:51:35;;;;;;;11.98;6.00;;;0.80;99.90;;;;;;5026040;28;20040;-66
2023/01/22 06:54:00;;;;;;;16.45;8.80;;;0.80;99.90;;;;;;5018810;28;20034;-66
2023/01/22 06:56:27;;;;;;;15.10;8.18;;;0.80;99.90;;;;;;5022207;28;20033;-66
2023/01/22 06:58:52;;;;;;;14.82;8.20;;;0.80;99.90;;;;;;4983242;28;20029;-66
2023/01/22 07:01:18;;;;;;;13.98;7.32;;;0.70;99.90;;;;;;5021892;28;20096;-66
2023/01/22 07:03:44;;;;;;;11.65;6.78;;;0.70;99.90;;;;;;5020042;28;20036;-66
2023/01/22 07:06:11;;;;;;;8.40;4.82;;;0.60;99.90;;;;;;5020504;28;20112;-66
2023/01/22 07:08:36;;;;;;;13.10;7.05;;;0.60;99.90;;;;;;5020592;28;20038;-66
2023/01/22 07:11:03;;;;;;;11.45;6.43;;;0.60;99.90;;;;;;5013570;28;20042;-66
2023/01/22 07:13:29;;;;;;;13.02;6.13;;;0.60;99.90;;;;;;5019994;28;20038;-66
2023/01/22 07:15:55;;;;;;;9.63;5.95;;;0.50;99.90;;;;;;5017438;28;20080;-66
2023/01/22 07:18:22;;;;;;;13.15;8.02;;;0.50;99.90;;;;;;5019161;28;20527;-66
2023/01/22 07:20:48;;;;;;;10.20;5.05;;;0.50;99.90;;;;;;5018142;28;20112;-66
2023/01/22 07:23:14;;;;;;;9.90;6.20;;;0.60;99.90;;;;;;5018966;28;20559;-66
2023/01/22 07:25:40;;;;;;;11.30;6.55;;;0.60;99.90;;;;;;5013898;28;20041;-67
2023/01/22 07:28:06;;;;;;;5.97;3.60;;;0.60;99.90;;;;;;5016969;28;20096;-67
2023/01/22 07:30:32;;;;;;;13.48;7.65;;;0.60;99.90;;;;;;5026034;28;20041;-67
2023/01/22 07:32:59;;;;;;;16.48;9.18;;;0.70;99.90;;;;;;5015658;28;20037;-67
2023/01/22 07:35:25;;;;;;;14.80;6.82;;;0.70;99.90;;;;;;5013304;28;20451;-66
2023/01/22 07:37:56;;;;;;;14.13;8.40;;;0.70;99.90;;;;;;5016907;28;20112;-66
2023/01/22 07:40:23;;;;;;;7.90;4.90;;;0.70;99.90;;;;;;4997345;28;20041;-67
2023/01/22 07:42:52;;;;;;;16.40;9.32;;;0.70;99.90;;;;;;5012347;28;20057;-67
2023/01/22 07:45:18;;;;;;;18.10;8.70;;;0.70;99.90;;;;;;5015933;28;20041;-67
2023/01/22 07:47:53;;;;;;;16.05;8.30;;;0.80;99.90;;;;;;5012687;28;20073;-67
2023/01/22 07:50:20;;;;;;;12.50;6.40;;;0.80;99.90;;;;;;5013614;28;20441;-68
2023/01/22 07:52:45;;;;;;;14.20;8.85;;;0.80;99.90;;;;;;5017942;28;20840;-69
2023/01/22 07:55:11;;;;;;;14.23;7.53;;;0.80;99.90;;;;;;5018658;28;20087;-68
2023/01/22 07:57:36;;;;;;;15.82;9.88;;;0.80;99.90;;;;;;5013892;28;20038;-69
2023/01/22 08:00:03;;;;;;;17.67;9.45;;;0.80;99.90;;;;;;5019435;28;20063;-68
2023/01/22 08:02:28;;;;;;;15.20;8.50;;;0.80;99.90;;;;;;5015288;28;20490;-68
2023/01/22 08:04:54;;;;;;;12.73;4.93;;;0.80;99.90;;;;;;5013297;28;20051;-69
2023/01/22 08:07:21;;;;;;;19.77;9.50;;;0.80;99.90;;;;;;5013491;28;20042;-68
2023/01/22 08:09:47;;;;;;;11.50;6.75;;;0.90;99.90;;;;;;5013419;28;20512;-67
2023/01/22 08:12:13;;;;;;;13.00;6.95;;;0.80;99.90;;;;;;5007262;28;20041;-67
2023/01/22 08:14:38;;;;;;;16.55;9.07;;;0.90;99.90;;;;;;5021126;28;20041;-66
2023/01/22 08:17:04;;;;;;;9.55;5.68;;;0.90;99.90;;;;;;5042476;28;20132;-66
2023/01/22 08:19:29;;;;;;;15.13;9.05;;;0.90;99.90;;;;;;5031205;28;20034;-66
2023/01/22 08:21:55;;;;;;;14.20;8.20;;;0.90;99.90;;;;;;5019581;28;20038;-66
2023/01/22 08:24:21;;;;;;;16.52;9.10;;;0.90;99.90;;;;;;5019632;28;20393;-66
2023/01/22 08:26:47;;;;;;;17.15;10.75;;;1.00;99.90;;;;;;5024330;28;20099;-66
2023/01/22 08:29:13;;;;;;;17.30;7.50;;;1.00;99.90;;;;;;5021582;28;20041;-66
2023/01/22 08:31:39;;;;;;;14.00;8.02;;;1.00;99.90;;;;;;5023163;28;20693;-66
2023/01/22 08:34:04;;;;;;;16.67;8.90;;;1.00;99.90;;;;;;5021055;28;20045;-66
2023/01/22 08:36:30;;;;;;;18.92;10.00;;;1.00;99.90;;;;;;5031418;28;20037;-66
2023/01/22 08:38:56;;;;;;;19.02;11.20;;;1.00;99.90;;;;;;5012421;28;20061;-66
2023/01/22 08:41:22;;;;;;;10.10;6.05;;;1.10;99.90;;;;;;5021403;28;20034;-66
2023/01/22 08:43:48;;;;;;;14.48;8.65;;;1.00;99.90;;;;;;5018002;28;20045;-66
2023/01/22 08:46:14;;;;;;;18.23;10.70;;;1.10;99.90;;;;;;5017270;28;20400;-66
2023/01/22 08:48:42;;;;;;;10.60;5.55;;;1.10;99.90;;;;;;5020238;28;20038;-66
2023/01/22 08:51:07;;;;;;;15.93;9.88;;;1.10;99.90;;;;;;5019791;28;20064;-66
2023/01/22 08:53:33;;;;;;;16.33;10.00;;;1.10;99.90;;;;;;5018938;28;20516;-66
2023/01/22 08:55:59;;;;;;;8.90;4.15;;;1.10;99.90;;;;;;5015257;28;20054;-66
2023/01/22 08:58:26;;;;;;;15.32;8.20;;;1.20;99.90;;;;;;5017462;28;20041;-66
2023/01/22 09:00:53;;;;;;;16.92;9.68;;;1.10;99.90;;;;;;5019847;28;20076;-66
2023/01/22 09:03:22;;;;;;;13.70;8.18;;;1.20;99.90;;;;;;5017460;28;20038;-66
2023/01/22 09:05:49;;;;;;;18.70;9.85;;;1.20;99.90;;;;;;5018158;28;20408;-66
2023/01/22 09:08:15;;;;;;;18.38;9.52;;;1.20;99.90;;;;;;5019794;28;20049;-66
2023/01/22 09:10:42;;;;;;;14.02;7.68;;;1.30;99.90;;;;;;5017438;28;20045;-66
2023/01/22 09:13:08;;;;;;;19.05;10.27;;;1.30;99.90;;;;;;5021058;28;20050;-66
2023/01/22 09:15:33;;;;;;;15.23;7.85;;;1.30;99.90;;;;;;5021475;28;20396;-66
2023/01/22 09:17:59;;;;;;;18.98;10.10;;;1.30;99.90;;;;;;5021353;28;20040;-66
2023/01/22 09:20:25;;;;;;;17.98;10.15;;;1.40;99.90;;;;;;5015170;28;20041;-67
2023/01/22 09:22:50;;;;;;;12.27;7.15;;;1.40;99.90;;;;;;5021865;28;20045;-67
2023/01/22 09:25:16;;;;;;;12.35;8.15;;;1.40;99.90;;;;;;5018991;28;20034;-66
2023/01/22 09:27:42;;;;;;;17.10;10.10;;;1.40;99.90;;;;;;5017071;28;20462;-66
2023/01/22 09:30:09;;;;;;;14.20;8.60;;;1.50;99.90;;;;;;5018117;28;20038;-66
2023/01/22 09:32:35;;;;;;;17.20;10.30;;;1.50;99.90;;;;;;5021283;28;20480;-66
2023/01/22 09:35:01;;;;;;;16.33;9.93;;;1.50;99.90;;;;;;5023147;28;20044;-66
2023/01/22 09:37:26;;;;;;;16.42;10.02;;;1.60;99.90;;;;;;5023369;28;20045;-66
2023/01/22 09:39:52;;;;;;;15.35;8.23;;;1.60;99.90;;;;;;5027410;28;20049;-66
2023/01/22 09:42:36;;;;;;;18.35;10.20;;;1.60;99.90;;;;;;5022029;28;20435;-66
2023/01/22 09:45:06;;;;;;;17.20;9.63;;;1.60;99.90;;;;;;5023651;28;20123;-66
2023/01/22 09:47:41;;;;;;;19.88;10.95;;;1.70;99.90;;;;;;5022609;28;20029;-66
2023/01/22 09:50:18;;;;;;;18.23;10.52;;;1.70;99.90;;;;;;5018956;28;20378;-71
2023/01/22 09:52:44;;;;;;;15.68;9.60;;;1.70;99.90;;;;;;5018736;28;20026;-66
2023/01/22 09:55:16;;;;;;;17.00;10.57;;;1.70;99.90;;;;;;5023007;28;20033;-66
2023/01/22 09:57:45;;;;;;;16.00;8.30;;;1.80;99.90;;;;;;5020815;28;20049;-67
2023/01/22 10:00:34;;;;;;;15.93;10.15;;;1.80;99.90;;;;;;5022791;28;20029;-66
2023/01/22 10:03:05;;;;;;;16.17;8.98;;;1.80;99.90;;;;;;5022367;28;20052;-66
2023/01/22 10:05:41;;;;;;;17.38;10.50;;;1.80;99.90;;;;;;5021953;28;20627;-66
2023/01/22 10:08:15;;;;;;;18.95;9.10;;;1.80;99.90;;;;;;5019185;28;20030;-66
2023/01/22 10:10:41;;;;;;;18.75;10.23;;;1.80;99.90;;;;;;5015451;28;20408;-66
2023/01/22 10:13:18;;;;;;;19.23;10.98;;;1.80;99.90;;;;;;5017383;28;20054;-66
2023/01/22 10:15:44;;;;;;;19.15;10.30;;;1.90;99.90;;;;;;5012410;28;20161;-66
2023/01/22 10:18:25;;;;;;;12.85;6.78;;;1.90;99.90;;;;;;5013017;28;20046;-66
2023/01/22 10:20:53;;;;;;;12.73;7.53;;;1.90;99.90;;;;;;5031328;28;20034;-66
2023/01/22 10:23:22;;;;;;;14.35;6.60;;;1.80;99.90;;;;;;5019944;28;20384;-66
2023/01/22 10:25:47;;;;;;;15.57;8.85;;;1.80;99.90;;;;;;5026324;28;20487;-66
2023/01/22 10:28:14;;;;;;;16.67;9.07;;;1.70;99.90;;;;;;5019799;28;20088;-66
2023/01/22 10:30:47;;;;;;;17.73;9.75;;;1.70;99.90;;;;;;5019396;28;20049;-66
2023/01/22 10:33:22;;;;;;;15.32;8.50;;;1.70;99.90;;;;;;5010377;28;20507;-66
2023/01/22 10:35:50;;;;;;;15.50;8.73;;;1.70;99.90;;;;;;5027606;28;20042;-66
2023/01/22 10:38:28;;;;;;;16.02;9.30;;;1.60;99.90;;;;;;5027415;28;20083;-66
2023/01/22 10:41:00;;;;;;;16.08;9.38;;;1.60;99.90;;;;;;5047389;28;20077;-66
2023/01/22 10:43:35;;;;;;;16.35;8.85;;;1.70;99.90;;;;;;5022281;28;20037;-66
2023/01/22 10:46:24;;;;;;;19.50;9.32;;;1.70;99.90;;;;;;5020152;28;20500;-66
2023/01/22 10:49:05;;;;;;;16.48;9.00;;;1.80;99.90;;;;;;5017572;28;20049;-66
2023/01/22 10:51:36;;;;;;;16.98;9.40;;;1.90;99.90;;;;;;5015872;28;20124;-66
2023/01/22 10:54:02;;;;;;;13.45;7.43;;;1.90;99.90;;;;;;5017967;28;20088;-66
2023/01/22 10:56:37;;;;;;;16.20;9.27;;;1.90;99.90;;;;;;5024260;28;20037;-66
2023/01/22 10:59:25;;;;;;;15.05;8.30;;;2.00;99.90;;;;;;5011830;28;20092;-66
2023/01/22 11:02:10;;;;;;;16.05;8.18;;;2.00;99.90;;;;;;5019393;28;20121;-67
2023/01/22 11:04:36;;;;;;;17.27;8.98;;;2.00;99.90;;;;;;5021582;28;20048;-67
2023/01/22 11:07:12;;;;;;;17.80;10.32;;;2.00;99.90;;;;;;5022064;28;20115;-67
2023/01/22 11:10:10;;;;;;;21.15;10.05;;;2.10;99.90;;;;;;5018090;28;20037;-67
2023/01/22 11:12:41;;;;;;;20.27;10.32;;;2.10;99.90;;;;;;5014761;28;20061;-67
2023/01/22 11:15:28;;;;;;;15.85;8.90;;;2.20;99.90;;;;;;5030520;28;20041;-67
2023/01/22 11:17:58;;;;;;;11.10;5.90;;;2.20;99.90;;;;;;5020758;28;20048;-67
2023/01/22 11:20:48;;;;;;;9.45;5.53;;;2.10;99.90;;;;;;5019923;28;20065;-67
2023/01/22 11:23:37;;;;;;;15.43;9.00;;;2.10;99.90;;;;;;5031307;28;20389;-66
2023/01/22 11:26:30;;;;;;;17.13;7.20;;;2.10;99.90;;;;;;5021799;28;20399;-66
2023/01/22 11:28:56;;;;;;;10.30;6.10;;;2.00;99.90;;;;;;5015366;28;20037;-67
2023/01/22 11:31:42;;;;;;;20.85;9.63;;;2.00;99.90;;;;;;5023650;28;20048;-67
2023/01/22 11:34:31;;;;;;;7.15;4.40;;;2.00;99.90;;;;;;5015129;28;20042;-68
2023/01/22 11:37:10;;;;;;;17.52;7.55;;;2.00;99.90;;;;;;5020427;28;20049;-67
2023/01/22 11:39:57;;;;;;;16.50;8.13;;;2.00;99.90;;;;;;5027202;28;20053;-68
2023/01/22 11:42:50;;;;;;;12.23;6.93;;;2.00;99.90;;;;;;5019778;28;20054;-67
2023/01/22 11:45:55;;;;;;;12.27;6.32;;;2.00;99.90;;;;;;5018729;28;20052;-67
2023/01/22 11:48:46;;;;;;;14.85;8.80;;;2.00;99.90;;;;;;4951508;28;20078;-68
2023/01/22 11:51:33;;;;;;;18.27;10.40;;;2.10;99.90;;;;;;4976441;28;20042;-68
2023/01/22 11:54:17;;;;;;;16.08;8.13;;;2.10;99.90;;;;;;5011930;28;20676;-67
2023/01/22 11:57:17;;;;;;;11.32;6.80;;;2.20;99.90;;;;;;5022879;28;20045;-67
2023/01/22 12:00:16;;;;;;;16.65;8.82;;;2.30;99.90;;;;;;5023298;28;20075;-67
2023/01/22 12:03:03;;;;;;;19.83;10.88;;;2.30;99.90;;;;;;5021189;28;20129;-68
2023/01/22 12:05:39;;;;;;;18.63;9.10;;;2.40;99.90;;;;;;5012910;28;20424;-68
2023/01/22 12:08:15;;;;;;;19.45;10.27;;;2.40;99.90;;;;;;5011834;28;20856;-67
2023/01/22 12:11:08;;;;;;;17.88;9.88;;;2.40;99.90;;;;;;5015621;28;20449;-67
2023/01/22 12:14:11;;;;;;;19.15;10.07;;;2.50;99.90;;;;;;5006554;28;20134;-67
2023/01/22 12:16:48;;;;;;;18.85;9.38;;;2.40;99.90;;;;;;5012295;28;20054;-67
2023/01/22 12:19:36;;;;;;;15.48;7.78;;;2.40;99.90;;;;;;5018852;28;20045;-68
2023/01/22 12:22:26;;;;;;;14.20;7.95;;;2.40;99.90;;;;;;5027331;28;20073;-67
2023/01/22 12:25:10;;;;;;;11.48;5.80;;;2.40;99.90;;;;;;5021103;28;20408;-68
2023/01/22 12:28:04;;;;;;;17.90;8.82;;;2.40;99.90;;;;;;5020080;28;20381;-70
2023/01/22 12:30:41;;;;;;;12.65;7.45;;;2.40;99.90;;;;;;5028019;28;20077;-68
2023/01/22 12:33:13;;;;;;;18.05;9.52;;;2.40;99.90;;;;;;5018979;28;20080;-70
2023/01/22 12:35:39;;;;;;;17.45;9.55;;;2.40;99.90;;;;;;5021078;28;20563;-67
2023/01/22 12:38:19;;;;;;;16.35;9.35;;;2.40;99.90;;;;;;5019187;28;20121;-68
2023/01/22 12:41:12;;;;;;;10.10;4.90;;;2.40;99.90;;;;;;5015106;28;20042;-68
2023/01/22 12:43:50;;;;;;;17.38;9.73;;;2.40;99.90;;;;;;5018453;28;20033;-68
2023/01/22 12:46:38;;;;;;;17.00;8.75;;;2.40;99.90;;;;;;5029164;28;20045;-68
2023/01/22 12:49:08;;;;;;;11.55;5.88;;;2.40;99.90;;;;;;5026228;28;20053;-68
2023/01/22 12:51:38;;;;;;;10.70;5.85;;;2.40;99.90;;;;;;5018139;28;20080;-69
2023/01/22 12:54:24;;;;;;;14.43;7.85;;;2.40;99.90;;;;;;5023161;28;20091;-69
2023/01/22 12:56:52;;;;;;;16.17;9.35;;;2.40;99.90;;;;;;5020699;28;20404;-68
2023/01/22 12:59:31;;;;;;;14.52;6.55;;;2.40;99.90;;;;;;5022515;28;20037;-68
2023/01/22 13:01:59;;;;;;;13.95;7.85;;;2.40;99.90;;;;;;5022743;28;20049;-74